sensor_id;sensor_type;location;lat;lon;timestamp;pressure;altitude;pressure_sealevel;temperature;humidity
52927;BME280;40783;49.710;8.842;2023-07-09T00:00:10;99358.84;;;23.43;70.12
52927;BME280;40783;49.710;8.842;2023-07-09T00:02:39;99356.00;;;23.38;70.01
52927;BME280;40783;49.710;8.842;2023-07-09T00:05:04;99363.84;;;23.34;69.85
52927;BME280;40783;49.710;8.842;2023-07-09T00:07:30;99366.25;;;23.31;70.41
52927;BME280;40783;49.710;8.842;2023-07-09T00:09:56;99362.91;;;23.29;70.65
52927;BME280;40783;49.710;8.842;2023-07-09T00:12:24;99372.84;;;23.23;70.62
52927;BME280;40783;49.710;8.842;2023-07-09T00:14:50;99375.22;;;23.19;70.67
52927;BME280;40783;49.710;8.842;2023-07-09T00:17:19;99368.91;;;23.19;70.94
52927;BME280;40783;49.710;8.842;2023-07-09T00:19:48;99359.53;;;23.15;71.01
52927;BME280;40783;49.710;8.842;2023-07-09T00:22:15;99368.91;;;23.07;70.81
52927;BME280;40783;49.710;8.842;2023-07-09T00:24:46;99368.31;;;23.05;71.19
52927;BME280;40783;49.710;8.842;2023-07-09T00:27:12;99361.66;;;23.01;71.41
52927;BME280;40783;49.710;8.842;2023-07-09T00:29:38;99363.19;;;22.96;71.24
52927;BME280;40783;49.710;8.842;2023-07-09T00:32:04;99367.31;;;22.87;71.28
52927;BME280;40783;49.710;8.842;2023-07-09T00:34:29;99364.38;;;22.89;71.53
52927;BME280;40783;49.710;8.842;2023-07-09T00:36:57;99367.31;;;22.87;71.37
52927;BME280;40783;49.710;8.842;2023-07-09T00:39:25;99372.66;;;22.82;70.81
52927;BME280;40783;49.710;8.842;2023-07-09T00:41:51;99370.88;;;22.76;71.04
52927;BME280;40783;49.710;8.842;2023-07-09T00:49:12;99363.75;;;22.75;70.95
52927;BME280;40783;49.710;8.842;2023-07-09T00:51:45;99368.22;;;22.69;71.15
52927;BME280;40783;49.710;8.842;2023-07-09T00:54:18;99371.81;;;22.70;71.38
52927;BME280;40783;49.710;8.842;2023-07-09T00:56:45;99366.44;;;22.63;71.20
52927;BME280;40783;49.710;8.842;2023-07-09T00:59:13;99380.06;;;22.63;71.54
52927;BME280;40783;49.710;8.842;2023-07-09T01:01:39;99377.31;;;22.51;71.56
52927;BME280;40783;49.710;8.842;2023-07-09T01:04:05;99378.38;;;22.50;71.69
52927;BME280;40783;49.710;8.842;2023-07-09T01:06:50;99372.91;;;22.50;71.53
52927;BME280;40783;49.710;8.842;2023-07-09T01:09:17;99373.38;;;22.47;71.58
52927;BME280;40783;49.710;8.842;2023-07-09T01:11:45;99377.16;;;22.46;71.81
52927;BME280;40783;49.710;8.842;2023-07-09T01:14:14;99373.22;;;22.42;71.74
52927;BME280;40783;49.710;8.842;2023-07-09T01:16:50;99378.06;;;22.39;71.94
52927;BME280;40783;49.710;8.842;2023-07-09T01:19:26;99387.00;;;22.28;71.70
52927;BME280;40783;49.710;8.842;2023-07-09T01:21:57;99377.66;;;22.24;72.09
52927;BME280;40783;49.710;8.842;2023-07-09T01:27:07;99390.44;;;22.23;72.24
52927;BME280;40783;49.710;8.842;2023-07-09T01:29:33;99400.13;;;22.19;72.41
52927;BME280;40783;49.710;8.842;2023-07-09T01:32:00;99397.63;;;22.18;71.90
52927;BME280;40783;49.710;8.842;2023-07-09T01:34:25;99395.97;;;22.17;72.20
52927;BME280;40783;49.710;8.842;2023-07-09T01:36:50;99403.06;;;22.18;72.18
52927;BME280;40783;49.710;8.842;2023-07-09T01:39:20;99398.91;;;22.15;72.28
52927;BME280;40783;49.710;8.842;2023-07-09T01:41:48;99393.91;;;22.12;72.50
52927;BME280;40783;49.710;8.842;2023-07-09T01:44:13;99399.16;;;22.14;72.58
52927;BME280;40783;49.710;8.842;2023-07-09T01:46:39;99402.31;;;22.11;72.72
52927;BME280;40783;49.710;8.842;2023-07-09T01:49:04;99409.88;;;22.08;72.83
52927;BME280;40783;49.710;8.842;2023-07-09T01:51:32;99402.03;;;22.00;72.99
52927;BME280;40783;49.710;8.842;2023-07-09T01:54:01;99396.28;;;21.90;73.42
52927;BME280;40783;49.710;8.842;2023-07-09T01:56:26;99404.28;;;21.85;73.11
52927;BME280;40783;49.710;8.842;2023-07-09T01:58:51;99403.06;;;21.81;73.41
52927;BME280;40783;49.710;8.842;2023-07-09T02:01:16;99404.13;;;21.79;73.35
52927;BME280;40783;49.710;8.842;2023-07-09T02:03:44;99413.13;;;21.80;73.27
52927;BME280;40783;49.710;8.842;2023-07-09T02:06:09;99406.94;;;21.73;73.21
52927;BME280;40783;49.710;8.842;2023-07-09T02:08:38;99415.78;;;21.68;73.32
52927;BME280;40783;49.710;8.842;2023-07-09T02:11:03;99416.53;;;21.75;73.37
52927;BME280;40783;49.710;8.842;2023-07-09T02:13:29;99419.72;;;21.72;72.75
52927;BME280;40783;49.710;8.842;2023-07-09T02:15:54;99412.75;;;21.76;73.05
52927;BME280;40783;49.710;8.842;2023-07-09T02:18:19;99412.13;;;21.74;72.97
52927;BME280;40783;49.710;8.842;2023-07-09T02:20:47;99412.38;;;21.73;73.01
52927;BME280;40783;49.710;8.842;2023-07-09T02:23:12;99399.00;;;21.71;73.05
52927;BME280;40783;49.710;8.842;2023-07-09T02:25:38;99406.56;;;21.69;73.54
52927;BME280;40783;49.710;8.842;2023-07-09T02:28:03;99411.41;;;21.67;73.78
52927;BME280;40783;49.710;8.842;2023-07-09T02:30:28;99417.09;;;21.59;73.36
52927;BME280;40783;49.710;8.842;2023-07-09T02:32:53;99404.75;;;21.56;73.76
52927;BME280;40783;49.710;8.842;2023-07-09T02:35:20;99399.75;;;21.53;73.98
52927;BME280;40783;49.710;8.842;2023-07-09T02:37:47;99409.22;;;21.50;73.87
52927;BME280;40783;49.710;8.842;2023-07-09T02:40:13;99410.56;;;21.41;73.98
52927;BME280;40783;49.710;8.842;2023-07-09T02:42:38;99413.94;;;21.37;74.20
52927;BME280;40783;49.710;8.842;2023-07-09T02:45:04;99411.44;;;21.35;74.27
52927;BME280;40783;49.710;8.842;2023-07-09T02:47:29;99408.88;;;21.40;74.06
52927;BME280;40783;49.710;8.842;2023-07-09T02:49:54;99409.50;;;21.42;74.14
52927;BME280;40783;49.710;8.842;2023-07-09T02:52:22;99410.22;;;21.31;74.07
52927;BME280;40783;49.710;8.842;2023-07-09T02:54:47;99412.03;;;21.37;74.33
52927;BME280;40783;49.710;8.842;2023-07-09T02:57:12;99406.00;;;21.35;74.06
52927;BME280;40783;49.710;8.842;2023-07-09T02:59:37;99401.44;;;21.29;73.98
52927;BME280;40783;49.710;8.842;2023-07-09T03:02:05;99410.06;;;21.26;74.19
52927;BME280;40783;49.710;8.842;2023-07-09T03:04:30;99408.25;;;21.19;74.23
52927;BME280;40783;49.710;8.842;2023-07-09T03:06:58;99416.84;;;21.16;74.13
52927;BME280;40783;49.710;8.842;2023-07-09T03:09:27;99416.41;;;21.19;74.50
52927;BME280;40783;49.710;8.842;2023-07-09T03:11:52;99422.91;;;21.18;74.29
52927;BME280;40783;49.710;8.842;2023-07-09T03:14:20;99418.72;;;21.16;74.50
52927;BME280;40783;49.710;8.842;2023-07-09T03:16:48;99420.63;;;21.15;74.38
52927;BME280;40783;49.710;8.842;2023-07-09T03:19:13;99423.78;;;21.12;74.71
52927;BME280;40783;49.710;8.842;2023-07-09T03:21:38;99428.00;;;21.08;74.64
52927;BME280;40783;49.710;8.842;2023-07-09T03:24:06;99420.47;;;21.03;74.79
52927;BME280;40783;49.710;8.842;2023-07-09T03:26:32;99423.59;;;21.07;75.23
52927;BME280;40783;49.710;8.842;2023-07-09T03:28:57;99417.13;;;21.08;74.96
52927;BME280;40783;49.710;8.842;2023-07-09T03:31:22;99423.00;;;21.05;74.94
52927;BME280;40783;49.710;8.842;2023-07-09T03:33:48;99427.63;;;20.98;74.98
52927;BME280;40783;49.710;8.842;2023-07-09T03:36:15;99423.69;;;20.94;74.81
52927;BME280;40783;49.710;8.842;2023-07-09T03:38:44;99429.81;;;20.89;74.94
52927;BME280;40783;49.710;8.842;2023-07-09T03:41:11;99428.34;;;20.86;75.01
52927;BME280;40783;49.710;8.842;2023-07-09T03:43:36;99430.78;;;20.95;75.07
52927;BME280;40783;49.710;8.842;2023-07-09T03:46:02;99431.84;;;20.94;74.70
52927;BME280;40783;49.710;8.842;2023-07-09T03:48:27;99433.06;;;20.98;75.18
52927;BME280;40783;49.710;8.842;2023-07-09T03:50:52;99440.19;;;20.99;75.18
52927;BME280;40783;49.710;8.842;2023-07-09T03:53:20;99443.53;;;20.94;75.11
52927;BME280;40783;49.710;8.842;2023-07-09T03:55:45;99439.22;;;20.86;75.56
52927;BME280;40783;49.710;8.842;2023-07-09T03:58:11;99441.94;;;20.86;76.06
52927;BME280;40783;49.710;8.842;2023-07-09T04:00:41;99442.78;;;20.80;76.01
52927;BME280;40783;49.710;8.842;2023-07-09T04:03:06;99443.63;;;20.74;76.41
52927;BME280;40783;49.710;8.842;2023-07-09T04:05:33;99439.88;;;20.75;76.16
52927;BME280;40783;49.710;8.842;2023-07-09T04:07:58;99436.53;;;20.73;76.32
52927;BME280;40783;49.710;8.842;2023-07-09T04:10:23;99444.91;;;20.78;76.57
52927;BME280;40783;49.710;8.842;2023-07-09T04:12:51;99444.03;;;20.84;76.72
52927;BME280;40783;49.710;8.842;2023-07-09T04:15:20;99435.25;;;20.82;76.48
52927;BME280;40783;49.710;8.842;2023-07-09T04:17:45;99447.19;;;20.81;76.45
52927;BME280;40783;49.710;8.842;2023-07-09T04:20:11;99446.13;;;20.82;76.51
52927;BME280;40783;49.710;8.842;2023-07-09T04:22:40;99446.97;;;20.76;76.49
52927;BME280;40783;49.710;8.842;2023-07-09T04:25:06;99436.53;;;20.73;76.94
52927;BME280;40783;49.710;8.842;2023-07-09T04:27:31;99439.47;;;20.71;76.72
52927;BME280;40783;49.710;8.842;2023-07-09T04:29:59;99436.34;;;20.74;76.74
52927;BME280;40783;49.710;8.842;2023-07-09T04:32:27;99443.22;;;20.77;77.01
52927;BME280;40783;49.710;8.842;2023-07-09T04:34:53;99438.19;;;20.74;77.57
52927;BME280;40783;49.710;8.842;2023-07-09T04:37:18;99443.22;;;20.77;77.42
52927;BME280;40783;49.710;8.842;2023-07-09T04:39:46;99448.22;;;20.80;77.21
52927;BME280;40783;49.710;8.842;2023-07-09T04:42:13;99447.78;;;20.83;77.33
52927;BME280;40783;49.710;8.842;2023-07-09T04:44:44;99454.91;;;20.84;77.49
52927;BME280;40783;49.710;8.842;2023-07-09T04:47:09;99454.91;;;20.84;77.43
52927;BME280;40783;49.710;8.842;2023-07-09T04:49:37;99449.47;;;20.84;77.98
52927;BME280;40783;49.710;8.842;2023-07-09T04:52:02;99450.06;;;20.86;77.30
52927;BME280;40783;49.710;8.842;2023-07-09T04:54:27;99450.69;;;20.88;77.80
52927;BME280;40783;49.710;8.842;2023-07-09T04:56:52;99451.94;;;20.93;78.57
52927;BME280;40783;49.710;8.842;2023-07-09T04:59:18;99460.69;;;20.95;78.37
52927;BME280;40783;49.710;8.842;2023-07-09T05:01:43;99457.31;;;20.99;78.95
52927;BME280;40783;49.710;8.842;2023-07-09T05:04:08;99456.06;;;21.02;78.99
52927;BME280;40783;49.710;8.842;2023-07-09T05:06:34;99453.34;;;21.02;79.11
52927;BME280;40783;49.710;8.842;2023-07-09T05:08:59;99455.22;;;21.01;78.89
52927;BME280;40783;49.710;8.842;2023-07-09T05:11:27;99453.72;;;21.05;79.65
52927;BME280;40783;49.710;8.842;2023-07-09T05:13:52;99455.38;;;21.07;79.26
52927;BME280;40783;49.710;8.842;2023-07-09T05:16:18;99462.28;;;21.09;78.98
52927;BME280;40783;49.710;8.842;2023-07-09T05:18:44;99463.34;;;21.08;79.30
52927;BME280;40783;49.710;8.842;2023-07-09T05:21:10;99457.66;;;21.10;80.61
52927;BME280;40783;49.710;8.842;2023-07-09T05:23:35;99457.63;;;21.16;84.68
52927;BME280;40783;49.710;8.842;2023-07-09T05:26:03;99455.56;;;21.12;82.37
52927;BME280;40783;49.710;8.842;2023-07-09T05:28:28;99461.41;;;21.15;84.11
52927;BME280;40783;49.710;8.842;2023-07-09T05:30:54;99455.53;;;21.18;85.38
52927;BME280;40783;49.710;8.842;2023-07-09T05:33:19;99456.59;;;21.17;86.97
52927;BME280;40783;49.710;8.842;2023-07-09T05:35:47;99454.63;;;21.25;88.68
52927;BME280;40783;49.710;8.842;2023-07-09T05:38:15;99462.13;;;21.29;88.02
52927;BME280;40783;49.710;8.842;2023-07-09T05:40:40;99450.38;;;21.35;88.96
52927;BME280;40783;49.710;8.842;2023-07-09T05:43:06;99451.97;;;21.43;89.40
52927;BME280;40783;49.710;8.842;2023-07-09T05:45:31;99441.88;;;21.50;87.10
52927;BME280;40783;49.710;8.842;2023-07-09T05:47:59;99448.09;;;21.58;85.91
52927;BME280;40783;49.710;8.842;2023-07-09T05:50:29;99441.34;;;21.67;86.68
52927;BME280;40783;49.710;8.842;2023-07-09T05:52:56;99452.06;;;21.81;85.16
52927;BME280;40783;49.710;8.842;2023-07-09T05:55:22;99444.81;;;21.93;85.73
52927;BME280;40783;49.710;8.842;2023-07-09T05:57:47;99450.59;;;22.03;85.51
52927;BME280;40783;49.710;8.842;2023-07-09T06:00:12;99448.31;;;22.19;84.46
52927;BME280;40783;49.710;8.842;2023-07-09T06:02:38;99448.13;;;22.32;83.72
52927;BME280;40783;49.710;8.842;2023-07-09T06:05:04;99459.97;;;22.45;82.96
52927;BME280;40783;49.710;8.842;2023-07-09T06:07:34;99459.81;;;22.58;85.73
52927;BME280;40783;49.710;8.842;2023-07-09T06:10:02;99451.09;;;22.80;84.26
52927;BME280;40783;49.710;8.842;2023-07-09T06:12:27;99446.44;;;22.99;83.15
52927;BME280;40783;49.710;8.842;2023-07-09T06:14:55;99457.50;;;23.16;80.62
52927;BME280;40783;49.710;8.842;2023-07-09T06:17:20;99456.16;;;23.37;81.05
52927;BME280;40783;49.710;8.842;2023-07-09T06:19:45;99456.06;;;23.56;81.08
52927;BME280;40783;49.710;8.842;2023-07-09T06:22:10;99461.50;;;23.80;81.80
52927;BME280;40783;49.710;8.842;2023-07-09T06:24:35;99460.44;;;23.93;81.45
52927;BME280;40783;49.710;8.842;2023-07-09T06:27:01;99453.44;;;24.09;78.12
52927;BME280;40783;49.710;8.842;2023-07-09T06:29:28;99453.63;;;24.31;77.98
52927;BME280;40783;49.710;8.842;2023-07-09T06:31:56;99463.31;;;24.51;79.80
52927;BME280;40783;49.710;8.842;2023-07-09T06:34:21;99463.63;;;24.66;75.74
52927;BME280;40783;49.710;8.842;2023-07-09T06:36:47;99461.22;;;24.82;78.24
52927;BME280;40783;49.710;8.842;2023-07-09T06:39:12;99456.44;;;24.89;73.67
52927;BME280;40783;49.710;8.842;2023-07-09T06:41:37;99467.22;;;25.13;74.46
52927;BME280;40783;49.710;8.842;2023-07-09T06:44:07;99465.75;;;25.22;71.48
52927;BME280;40783;49.710;8.842;2023-07-09T06:46:32;99462.63;;;25.47;69.70
52927;BME280;40783;49.710;8.842;2023-07-09T06:48:57;99463.63;;;25.58;67.18
52927;BME280;40783;49.710;8.842;2023-07-09T06:51:25;99465.09;;;25.83;68.55
52927;BME280;40783;49.710;8.842;2023-07-09T06:53:53;99466.00;;;26.11;67.04
52927;BME280;40783;49.710;8.842;2023-07-09T06:56:20;99459.41;;;26.29;66.98
52927;BME280;40783;49.710;8.842;2023-07-09T06:58:48;99466.75;;;26.46;67.87
52927;BME280;40783;49.710;8.842;2023-07-09T07:01:15;99460.03;;;26.59;65.69
52927;BME280;40783;49.710;8.842;2023-07-09T07:03:40;99461.50;;;26.66;63.85
52927;BME280;40783;49.710;8.842;2023-07-09T07:06:05;99456.38;;;26.75;62.34
52927;BME280;40783;49.710;8.842;2023-07-09T07:08:33;99453.25;;;26.89;64.66
52927;BME280;40783;49.710;8.842;2023-07-09T07:11:02;99464.34;;;26.99;59.29
52927;BME280;40783;49.710;8.842;2023-07-09T07:13:31;99459.38;;;26.96;58.90
52927;BME280;40783;49.710;8.842;2023-07-09T07:16:00;99453.94;;;27.01;58.66
52927;BME280;40783;49.710;8.842;2023-07-09T07:18:30;99455.19;;;27.21;58.05
52927;BME280;40783;49.710;8.842;2023-07-09T07:20:55;99448.72;;;27.32;58.32
52927;BME280;40783;49.710;8.842;2023-07-09T07:23:20;99452.03;;;27.34;55.25
52927;BME280;40783;49.710;8.842;2023-07-09T07:25:48;99445.06;;;27.54;56.00
52927;BME280;40783;49.710;8.842;2023-07-09T07:28:14;99452.22;;;27.60;56.41
52927;BME280;40783;49.710;8.842;2023-07-09T07:30:39;99450.41;;;27.71;55.76
52927;BME280;40783;49.710;8.842;2023-07-09T07:33:04;99452.97;;;27.88;55.97
52927;BME280;40783;49.710;8.842;2023-07-09T07:35:32;99442.06;;;28.09;54.68
52927;BME280;40783;49.710;8.842;2023-07-09T07:37:57;99440.78;;;28.22;55.35
52927;BME280;40783;49.710;8.842;2023-07-09T07:40:22;99445.00;;;28.40;54.93
52927;BME280;40783;49.710;8.842;2023-07-09T07:42:47;99445.00;;;28.45;52.94
52927;BME280;40783;49.710;8.842;2023-07-09T07:45:13;99447.25;;;28.53;53.32
52927;BME280;40783;49.710;8.842;2023-07-09T07:47:38;99446.69;;;28.67;53.86
52927;BME280;40783;49.710;8.842;2023-07-09T07:50:06;99448.72;;;28.82;51.85
52927;BME280;40783;49.710;8.842;2023-07-09T07:52:32;99450.91;;;28.90;52.76
52927;BME280;40783;49.710;8.842;2023-07-09T07:54:57;99457.28;;;29.06;52.77
52927;BME280;40783;49.710;8.842;2023-07-09T07:57:25;99449.56;;;29.24;52.63
52927;BME280;40783;49.710;8.842;2023-07-09T07:59:51;99442.13;;;29.19;52.34
52927;BME280;40783;49.710;8.842;2023-07-09T08:02:16;99448.47;;;29.09;53.74
52927;BME280;40783;49.710;8.842;2023-07-09T08:04:44;99449.25;;;28.89;53.54
52927;BME280;40783;49.710;8.842;2023-07-09T08:07:18;99451.94;;;28.68;55.70
52927;BME280;40783;49.710;8.842;2023-07-09T08:09:52;99441.75;;;28.58;56.39
52927;BME280;40783;49.710;8.842;2023-07-09T08:12:20;99438.44;;;28.56;54.99
52927;BME280;40783;49.710;8.842;2023-07-09T08:14:48;99441.75;;;28.53;55.12
52927;BME280;40783;49.710;8.842;2023-07-09T08:17:13;99439.78;;;28.54;54.39
52927;BME280;40783;49.710;8.842;2023-07-09T08:19:48;99434.59;;;28.52;53.16
52927;BME280;40783;49.710;8.842;2023-07-09T08:22:14;99440.09;;;28.52;54.80
52927;BME280;40783;49.710;8.842;2023-07-09T08:24:40;99439.53;;;28.55;55.68
52927;BME280;40783;49.710;8.842;2023-07-09T08:27:06;99442.84;;;28.63;51.86
52927;BME280;40783;49.710;8.842;2023-07-09T08:29:31;99441.25;;;28.77;53.24
52927;BME280;40783;49.710;8.842;2023-07-09T08:31:56;99440.72;;;28.80;54.79
52927;BME280;40783;49.710;8.842;2023-07-09T08:34:24;99435.78;;;28.98;54.49
52927;BME280;40783;49.710;8.842;2023-07-09T08:36:51;99434.13;;;28.97;53.61
52927;BME280;40783;49.710;8.842;2023-07-09T08:39:17;99433.59;;;29.00;54.60
52927;BME280;40783;49.710;8.842;2023-07-09T08:49:15;99419.25;;;29.18;53.65
52927;BME280;40783;49.710;8.842;2023-07-09T08:51:42;99425.88;;;29.23;50.69
52927;BME280;40783;49.710;8.842;2023-07-09T08:54:14;99431.66;;;29.37;49.79
52927;BME280;40783;49.710;8.842;2023-07-09T08:56:40;99419.84;;;29.41;49.48
52927;BME280;40783;49.710;8.842;2023-07-09T08:59:07;99425.31;;;29.31;47.71
52927;BME280;40783;49.710;8.842;2023-07-09T09:01:37;99424.78;;;29.24;48.95
52927;BME280;40783;49.710;8.842;2023-07-09T09:04:18;99424.25;;;29.42;46.12
52927;BME280;40783;49.710;8.842;2023-07-09T09:06:47;99425.66;;;29.40;48.32
52927;BME280;40783;49.710;8.842;2023-07-09T09:11:53;99424.25;;;29.48;50.61
52927;BME280;40783;49.710;8.842;2023-07-09T09:14:35;99419.84;;;29.46;46.70
52927;BME280;40783;49.710;8.842;2023-07-09T09:17:07;99425.34;;;29.62;48.61
52927;BME280;40783;49.710;8.842;2023-07-09T09:19:37;99418.97;;;29.67;49.76
52927;BME280;40783;49.710;8.842;2023-07-09T09:22:13;99421.13;;;29.85;51.29
52927;BME280;40783;49.710;8.842;2023-07-09T09:27:19;99418.06;;;29.97;47.51
52927;BME280;40783;49.710;8.842;2023-07-09T09:29:45;99420.81;;;29.97;48.86
52927;BME280;40783;49.710;8.842;2023-07-09T09:34:43;99416.41;;;29.96;47.30
52927;BME280;40783;49.710;8.842;2023-07-09T09:37:09;99411.47;;;30.03;47.03
52927;BME280;40783;49.710;8.842;2023-07-09T09:39:37;99410.06;;;30.06;46.79
52927;BME280;40783;49.710;8.842;2023-07-09T09:42:03;99409.44;;;30.19;46.50
52927;BME280;40783;49.710;8.842;2023-07-09T09:44:34;99409.13;;;30.26;46.96
52927;BME280;40783;49.710;8.842;2023-07-09T09:47:02;99412.19;;;30.25;43.83
52927;BME280;40783;49.710;8.842;2023-07-09T09:49:28;99416.03;;;30.29;45.31
52927;BME280;40783;49.710;8.842;2023-07-09T09:51:53;99414.97;;;30.19;46.16
52927;BME280;40783;49.710;8.842;2023-07-09T09:54:24;99419.06;;;30.27;46.27
52927;BME280;40783;49.710;8.842;2023-07-09T09:56:49;99423.50;;;30.23;45.05
52927;BME280;40783;49.710;8.842;2023-07-09T09:59:19;99429.78;;;30.39;44.94
52927;BME280;40783;49.710;8.842;2023-07-09T10:01:55;99424.50;;;30.43;43.52
52927;BME280;40783;49.710;8.842;2023-07-09T10:04:23;99418.75;;;30.39;44.56
52927;BME280;40783;49.710;8.842;2023-07-09T10:06:50;99426.69;;;30.46;42.41
52927;BME280;40783;49.710;8.842;2023-07-09T10:09:21;99412.31;;;30.59;46.84
52927;BME280;40783;49.710;8.842;2023-07-09T10:11:50;99418.06;;;30.63;42.81
52927;BME280;40783;49.710;8.842;2023-07-09T10:16:48;99411.47;;;30.54;44.83
52927;BME280;40783;49.710;8.842;2023-07-09T10:19:22;99395.03;;;30.83;47.09
52927;BME280;40783;49.710;8.842;2023-07-09T10:27:18;99403.84;;;30.85;42.51
52927;BME280;40783;49.710;8.842;2023-07-09T10:32:52;99394.38;;;30.97;44.62
52927;BME280;40783;49.710;8.842;2023-07-09T10:35:26;99386.59;;;31.04;42.17
52927;BME280;40783;49.710;8.842;2023-07-09T10:38:28;99393.88;;;30.89;43.74
52927;BME280;40783;49.710;8.842;2023-07-09T10:40:47;99391.16;;;30.84;42.83
52927;BME280;40783;49.710;8.842;2023-07-09T10:43:17;99381.47;;;30.87;41.52
52927;BME280;40783;49.710;8.842;2023-07-09T10:45:49;99393.25;;;30.98;44.53
52927;BME280;40783;49.710;8.842;2023-07-09T10:48:20;99377.38;;;30.79;44.65
52927;BME280;40783;49.710;8.842;2023-07-09T10:50:53;99376.22;;;30.85;43.51
52927;BME280;40783;49.710;8.842;2023-07-09T10:58:43;99364.31;;;30.95;44.94
52927;BME280;40783;49.710;8.842;2023-07-09T11:01:14;99373.94;;;30.98;42.12
52927;BME280;40783;49.710;8.842;2023-07-09T11:03:43;99367.75;;;31.11;41.26
52927;BME280;40783;49.710;8.842;2023-07-09T11:08:53;99371.88;;;31.43;45.80
52927;BME280;40783;49.710;8.842;2023-07-09T11:11:24;99370.28;;;31.37;44.20
52927;BME280;40783;49.710;8.842;2023-07-09T11:13:53;99365.19;;;31.49;45.20
52927;BME280;40783;49.710;8.842;2023-07-09T11:16:29;99362.38;;;31.55;46.73
52927;BME280;40783;49.710;8.842;2023-07-09T11:19:01;99363.47;;;31.53;43.99
52927;BME280;40783;49.710;8.842;2023-07-09T11:21:29;99359.28;;;31.56;45.09
52927;BME280;40783;49.710;8.842;2023-07-09T11:23:56;99362.84;;;31.62;42.49
52927;BME280;40783;49.710;8.842;2023-07-09T11:28:51;99349.34;;;31.55;40.20
52927;BME280;40783;49.710;8.842;2023-07-09T11:31:21;99343.50;;;31.62;40.77
52927;BME280;40783;49.710;8.842;2023-07-09T11:33:48;99353.13;;;31.64;40.45
52927;BME280;40783;49.710;8.842;2023-07-09T11:36:14;99358.31;;;31.71;39.00
52927;BME280;40783;49.710;8.842;2023-07-09T11:38:48;99350.59;;;31.73;38.96
52927;BME280;40783;49.710;8.842;2023-07-09T11:44:00;99345.09;;;31.68;41.75
52927;BME280;40783;49.710;8.842;2023-07-09T11:46:27;99348.03;;;31.77;44.29
52927;BME280;40783;49.710;8.842;2023-07-09T11:48:52;99345.06;;;31.73;42.48
52927;BME280;40783;49.710;8.842;2023-07-09T11:51:29;99347.81;;;31.73;43.62
52927;BME280;40783;49.710;8.842;2023-07-09T11:53:59;99338.56;;;31.59;42.56
52927;BME280;40783;49.710;8.842;2023-07-09T11:56:27;99341.00;;;31.60;42.82
52927;BME280;40783;49.710;8.842;2023-07-09T11:58:56;99339.84;;;31.42;41.35
52927;BME280;40783;49.710;8.842;2023-07-09T12:01:43;99340.38;;;31.68;45.33
52927;BME280;40783;49.710;8.842;2023-07-09T12:04:14;99341.13;;;31.79;44.09
52927;BME280;40783;49.710;8.842;2023-07-09T12:06:40;99334.09;;;31.63;40.00
52927;BME280;40783;49.710;8.842;2023-07-09T12:09:05;99326.38;;;31.60;44.89
52927;BME280;40783;49.710;8.842;2023-07-09T12:11:32;99326.44;;;31.55;40.71
52927;BME280;40783;49.710;8.842;2023-07-09T12:14:18;99331.25;;;31.73;40.35
52927;BME280;40783;49.710;8.842;2023-07-09T12:16:47;99324.03;;;31.72;41.06
52927;BME280;40783;49.710;8.842;2023-07-09T12:19:16;99319.59;;;31.76;41.41
52927;BME280;40783;49.710;8.842;2023-07-09T12:21:45;99317.13;;;31.70;42.70
52927;BME280;40783;49.710;8.842;2023-07-09T12:24:23;99312.72;;;31.68;40.41
52927;BME280;40783;49.710;8.842;2023-07-09T12:26:52;99312.44;;;31.70;39.72
52927;BME280;40783;49.710;8.842;2023-07-09T12:29:23;99305.59;;;31.87;38.32
52927;BME280;40783;49.710;8.842;2023-07-09T12:31:51;99302.63;;;31.83;38.67
52927;BME280;40783;49.710;8.842;2023-07-09T12:34:16;99300.16;;;31.81;42.63
52927;BME280;40783;49.710;8.842;2023-07-09T12:36:48;99298.59;;;31.75;40.99
52927;BME280;40783;49.710;8.842;2023-07-09T12:39:14;99301.97;;;31.67;37.95
52927;BME280;40783;49.710;8.842;2023-07-09T12:41:44;99292.84;;;31.91;38.07
52927;BME280;40783;49.710;8.842;2023-07-09T12:44:18;99295.47;;;32.01;37.50
52927;BME280;40783;49.710;8.842;2023-07-09T12:46:44;99292.63;;;32.06;35.58
52927;BME280;40783;49.710;8.842;2023-07-09T12:49:17;99288.75;;;32.07;35.84
52927;BME280;40783;49.710;8.842;2023-07-09T12:51:48;99281.19;;;32.13;35.19
52927;BME280;40783;49.710;8.842;2023-07-09T12:54:16;99280.06;;;31.95;38.48
52927;BME280;40783;49.710;8.842;2023-07-09T12:56:44;99272.06;;;32.12;36.70
52927;BME280;40783;49.710;8.842;2023-07-09T12:59:21;99270.88;;;32.19;35.71
52927;BME280;40783;49.710;8.842;2023-07-09T13:01:59;99266.22;;;31.76;35.30
52927;BME280;40783;49.710;8.842;2023-07-09T13:04:32;99271.75;;;31.51;37.28
52927;BME280;40783;49.710;8.842;2023-07-09T13:06:57;99265.84;;;31.82;38.25
52927;BME280;40783;49.710;8.842;2023-07-09T13:09:25;99259.88;;;31.75;35.45
52927;BME280;40783;49.710;8.842;2023-07-09T13:11:50;99256.16;;;31.61;35.30
52927;BME280;40783;49.710;8.842;2023-07-09T13:14:19;99253.13;;;31.81;34.78
52927;BME280;40783;49.710;8.842;2023-07-09T13:16:44;99253.75;;;31.78;35.40
52927;BME280;40783;49.710;8.842;2023-07-09T13:19:09;99246.28;;;31.98;35.47
52927;BME280;40783;49.710;8.842;2023-07-09T13:21:35;99248.38;;;32.06;34.24
52927;BME280;40783;49.710;8.842;2023-07-09T13:24:01;99248.34;;;31.68;35.48
52927;BME280;40783;49.710;8.842;2023-07-09T13:26:26;99250.59;;;31.42;36.02
52927;BME280;40783;49.710;8.842;2023-07-09T13:28:53;99252.84;;;31.40;35.19
52927;BME280;40783;49.710;8.842;2023-07-09T13:31:19;99246.59;;;31.77;37.27
52927;BME280;40783;49.710;8.842;2023-07-09T13:33:55;99247.41;;;31.97;34.18
52927;BME280;40783;49.710;8.842;2023-07-09T13:36:21;99245.47;;;31.97;34.15
52927;BME280;40783;49.710;8.842;2023-07-09T13:38:47;99243.66;;;32.07;33.31
52927;BME280;40783;49.710;8.842;2023-07-09T13:41:14;99245.53;;;32.11;32.24
52927;BME280;40783;49.710;8.842;2023-07-09T13:43:43;99245.09;;;32.04;33.99
52927;BME280;40783;49.710;8.842;2023-07-09T13:46:11;99238.34;;;32.10;32.93
52927;BME280;40783;49.710;8.842;2023-07-09T13:48:36;99240.44;;;32.19;32.61